createdAt,value
2022-09-02T00:01:57.586Z,17.80
2022-09-02T00:04:26.145Z,17.88
2022-09-02T00:06:54.341Z,17.50
2022-09-02T00:09:23.682Z,16.27
2022-09-02T00:11:52.013Z,17.20
2022-09-02T00:14:25.824Z,17.15
2022-09-02T00:16:53.008Z,16.55
2022-09-02T00:19:25.432Z,16.10
2022-09-02T00:21:54.151Z,16.55
2022-09-02T00:24:22.394Z,18.83
2022-09-02T00:26:49.768Z,20.00
2022-09-02T00:29:17.261Z,18.98
2022-09-02T00:31:45.461Z,18.20
2022-09-02T00:34:12.598Z,19.60
2022-09-02T00:36:40.339Z,18.73
2022-09-02T00:39:08.862Z,17.83
2022-09-02T00:41:38.366Z,16.65
2022-09-02T00:44:11.027Z,17.00
2022-09-02T00:46:39.435Z,16.63
2022-09-02T00:49:13.156Z,15.40
2022-09-02T00:51:44.594Z,15.80
2022-09-02T00:54:14.416Z,15.18
2022-09-02T00:56:43.812Z,15.63
2022-09-02T00:59:15.917Z,16.40
2022-09-02T01:01:42.570Z,15.32
2022-09-02T01:04:12.675Z,15.15
2022-09-02T01:06:39.942Z,14.70
2022-09-02T01:09:12.912Z,13.63
2022-09-02T01:11:48.678Z,12.50
2022-09-02T01:14:16.834Z,11.93
2022-09-02T01:16:47.827Z,11.48
2022-09-02T01:19:28.506Z,9.48
2022-09-02T01:21:57.316Z,9.10
2022-09-02T01:24:28.527Z,8.68
2022-09-02T01:26:57.051Z,8.23
2022-09-02T01:29:25.069Z,8.52
2022-09-02T01:31:52.571Z,9.40
2022-09-02T01:34:19.538Z,9.68
2022-09-02T01:36:46.588Z,10.13
2022-09-02T01:39:13.931Z,9.98
2022-09-02T01:41:41.053Z,9.77
2022-09-02T01:44:08.131Z,10.55
2022-09-02T01:46:36.378Z,10.50
2022-09-02T01:49:03.834Z,10.02
2022-09-02T01:51:31.398Z,6.10
2022-09-02T01:53:57.997Z,6.68
2022-09-02T01:56:24.595Z,5.50
2022-09-02T01:58:51.498Z,6.47
2022-09-02T02:01:19.866Z,8.07
2022-09-02T02:03:46.615Z,9.70
2022-09-02T02:06:17.478Z,10.82
2022-09-02T02:08:45.124Z,11.27
2022-09-02T02:11:12.550Z,11.40
2022-09-02T02:13:39.139Z,11.63
2022-09-02T02:16:06.504Z,10.45
2022-09-02T02:18:33.192Z,11.38
2022-09-02T02:20:59.890Z,11.30
2022-09-02T02:23:26.824Z,12.35
2022-09-02T02:25:53.440Z,11.90
2022-09-02T02:28:20.979Z,12.18
2022-09-02T02:30:47.907Z,11.40
2022-09-02T02:33:14.921Z,11.95
2022-09-02T02:35:42.347Z,13.90
2022-09-02T02:38:10.273Z,12.93
2022-09-02T02:43:07.547Z,13.57
2022-09-02T02:45:34.295Z,14.48
2022-09-02T02:48:00.970Z,13.80
2022-09-02T02:50:27.632Z,13.15
2022-09-02T02:52:54.964Z,12.90
2022-09-02T02:55:23.077Z,13.25
2022-09-02T02:57:50.800Z,13.95
2022-09-02T03:00:24.983Z,13.73
2022-09-02T03:02:59.152Z,15.02
2022-09-02T03:05:27.246Z,13.75
2022-09-02T03:07:54.469Z,13.70
2022-09-02T03:10:22.234Z,13.70
2022-09-02T03:12:49.221Z,12.15
2022-09-02T03:15:17.857Z,12.38
2022-09-02T03:17:45.746Z,12.30
2022-09-02T03:20:12.619Z,11.63
2022-09-02T03:22:40.237Z,13.80
2022-09-02T03:25:09.088Z,12.52
2022-09-02T03:27:38.368Z,11.98
2022-09-02T03:30:07.868Z,12.82
2022-09-02T03:32:34.550Z,12.55
2022-09-02T03:35:03.313Z,13.10
2022-09-02T03:37:30.102Z,12.32
2022-09-02T03:39:56.752Z,12.00
2022-09-02T03:42:23.390Z,13.38
2022-09-02T03:44:50.047Z,12.38
2022-09-02T03:47:17.785Z,11.32
2022-09-02T03:49:47.499Z,12.60
2022-09-02T03:52:14.189Z,12.65
2022-09-02T03:54:40.796Z,12.98
2022-09-02T03:57:07.389Z,13.80
2022-09-02T03:59:34.061Z,13.45
2022-09-02T04:02:03.293Z,13.07
2022-09-02T04:04:30.540Z,12.90
2022-09-02T04:06:58.275Z,12.02
2022-09-02T04:09:25.079Z,13.05
2022-09-02T04:11:51.740Z,12.45
2022-09-02T04:14:18.449Z,12.43
2022-09-02T04:16:45.069Z,13.02
2022-09-02T04:19:11.777Z,13.75
2022-09-02T04:21:41.841Z,12.02
2022-09-02T04:24:10.957Z,14.80
2022-09-02T04:26:37.773Z,11.98
2022-09-02T04:29:11.617Z,11.95
2022-09-02T04:31:38.236Z,12.45
2022-09-02T04:34:04.960Z,11.52
2022-09-02T04:36:31.611Z,13.50
2022-09-02T04:38:58.416Z,12.38
2022-09-02T04:41:28.493Z,13.52
2022-09-02T04:43:57.343Z,12.07
2022-09-02T04:46:34.716Z,13.88
2022-09-02T04:49:03.059Z,24.95
2022-09-02T04:51:29.808Z,14.57
2022-09-02T04:53:56.465Z,12.20
2022-09-02T04:56:27.308Z,13.55
2022-09-02T04:58:54.767Z,13.27
2022-09-02T05:01:25.476Z,13.90
2022-09-02T05:03:54.093Z,14.93
2022-09-02T05:06:26.332Z,13.85
2022-09-02T05:08:54.575Z,15.05
2022-09-02T05:11:29.646Z,13.85
2022-09-02T05:13:58.782Z,12.52
2022-09-02T05:16:31.816Z,14.98
2022-09-02T05:18:59.442Z,13.52
2022-09-02T05:21:26.349Z,14.48
2022-09-02T05:23:54.476Z,12.25
2022-09-02T05:26:22.663Z,13.30
2022-09-02T05:28:50.608Z,13.70
2022-09-02T05:31:20.364Z,12.48
2022-09-02T05:33:47.701Z,13.32
2022-09-02T05:36:19.059Z,12.85
2022-09-02T05:38:46.375Z,16.33
2022-09-02T05:41:17.629Z,12.55
2022-09-02T05:43:44.887Z,12.27
2022-09-02T05:46:14.839Z,12.48
2022-09-02T05:49:00.530Z,12.93
2022-09-02T05:51:27.187Z,12.57
2022-09-02T05:53:55.919Z,12.30
2022-09-02T05:56:22.986Z,11.52
2022-09-02T05:58:50.227Z,12.50
2022-09-02T06:01:19.022Z,12.75
2022-09-02T06:03:46.164Z,11.15
2022-09-02T06:06:13.651Z,12.05
2022-09-02T06:08:40.359Z,13.02
2022-09-02T06:11:09.556Z,12.43
2022-09-02T06:13:40.206Z,13.10
2022-09-02T06:16:09.218Z,13.68
2022-09-02T06:18:36.297Z,12.38
2022-09-02T06:21:06.627Z,13.32
2022-09-02T06:23:39.162Z,12.70
2022-09-02T06:26:11.180Z,12.98
2022-09-02T06:28:38.924Z,13.60
2022-09-02T06:31:11.801Z,17.30
2022-09-02T06:33:38.803Z,16.17
2022-09-02T06:36:08.708Z,15.10
2022-09-02T06:38:45.207Z,17.42
2022-09-02T06:41:14.434Z,20.65
2022-09-02T06:43:42.851Z,18.33
2022-09-02T06:46:22.077Z,17.10
2022-09-02T06:48:50.314Z,14.90
2022-09-02T06:51:23.510Z,15.38
2022-09-02T06:53:50.734Z,14.45
2022-09-02T06:56:17.771Z,14.68
2022-09-02T06:58:46.016Z,14.65
2022-09-02T07:01:24.205Z,15.10
2022-09-02T07:04:26.558Z,14.73
2022-09-02T07:06:55.089Z,14.88
2022-09-02T07:09:31.019Z,14.88
2022-09-02T07:12:04.195Z,14.82
2022-09-02T07:14:36.382Z,14.80
2022-09-02T07:17:03.414Z,13.27
2022-09-02T07:19:30.183Z,13.60
2022-09-02T07:21:56.953Z,13.95
2022-09-02T07:24:24.050Z,14.07
2022-09-02T07:26:55.623Z,14.02
2022-09-02T07:29:23.116Z,18.48
2022-09-02T07:31:50.205Z,19.48
2022-09-02T07:34:18.391Z,18.60
2022-09-02T07:36:45.973Z,14.52
2022-09-02T07:39:14.189Z,12.20
2022-09-02T07:41:42.991Z,12.55
2022-09-02T07:44:10.049Z,12.10
2022-09-02T07:46:37.772Z,12.98
2022-09-02T07:49:09.280Z,12.25
2022-09-02T07:54:06.705Z,11.65
2022-09-02T07:56:33.602Z,11.40
2022-09-02T07:59:00.526Z,12.07
2022-09-02T08:01:27.772Z,12.48
2022-09-02T08:03:54.973Z,13.82
2022-09-02T08:06:34.849Z,20.60
2022-09-02T08:09:06.759Z,19.35
2022-09-02T08:11:36.744Z,19.98
2022-09-02T08:14:03.405Z,21.10
2022-09-02T08:16:30.349Z,20.75
2022-09-02T08:18:58.161Z,17.48
2022-09-02T08:21:25.765Z,19.73
2022-09-02T08:23:52.710Z,18.77
2022-09-02T08:26:19.618Z,19.75
2022-09-02T08:28:46.294Z,15.50
2022-09-02T08:31:12.955Z,16.13
2022-09-02T08:33:39.681Z,15.95
2022-09-02T08:36:09.162Z,14.45
2022-09-02T08:38:36.912Z,18.40
2022-09-02T08:41:13.902Z,13.38
2022-09-02T08:43:42.872Z,11.82
2022-09-02T08:46:15.250Z,9.85
2022-09-02T08:48:52.890Z,11.07
2022-09-02T08:51:35.962Z,12.15
2022-09-02T08:54:22.528Z,11.10
2022-09-02T08:56:51.617Z,10.65
2022-09-02T08:59:27.336Z,9.05
2022-09-02T09:02:09.306Z,10.52
2022-09-02T09:07:58.417Z,9.88
2022-09-02T09:10:34.288Z,11.48
2022-09-02T09:13:25.487Z,11.73
2022-09-02T09:16:10.923Z,11.23
2022-09-02T09:18:48.840Z,11.40
2022-09-02T09:21:16.316Z,11.80
2022-09-02T09:23:44.284Z,11.88
2022-09-02T09:26:20.264Z,11.55
2022-09-02T09:28:49.246Z,11.00
2022-09-02T09:31:21.411Z,10.55
2022-09-02T09:34:02.838Z,11.57
2022-09-02T09:36:41.651Z,10.48
2022-09-02T09:39:17.454Z,9.20
2022-09-02T09:41:45.787Z,10.13
2022-09-02T09:44:47.099Z,9.90
2022-09-02T09:47:25.923Z,10.65
2022-09-02T09:50:08.497Z,11.13
2022-09-02T09:52:35.572Z,10.13
2022-09-02T09:55:16.457Z,10.48
2022-09-02T09:57:51.100Z,9.55
2022-09-02T10:00:33.342Z,10.25
2022-09-02T10:03:06.494Z,13.17
2022-09-02T10:05:39.022Z,13.55
2022-09-02T10:08:21.178Z,14.55
2022-09-02T10:11:24.685Z,9.60
2022-09-02T10:13:54.108Z,9.65
2022-09-02T10:17:00.560Z,9.50
2022-09-02T10:19:56.774Z,11.40
2022-09-02T10:22:59.905Z,9.48
2022-09-02T10:25:30.050Z,9.52
2022-09-02T10:28:15.987Z,9.15
2022-09-02T10:31:01.280Z,9.63
2022-09-02T10:33:30.453Z,11.63
2022-09-02T10:36:12.825Z,9.73
2022-09-02T10:38:49.153Z,10.52
2022-09-02T10:44:32.847Z,10.27
2022-09-02T10:47:10.007Z,9.70
2022-09-02T10:49:54.341Z,8.48
2022-09-02T10:52:39.300Z,9.40
2022-09-02T10:55:39.817Z,10.23
2022-09-02T10:58:15.065Z,9.48
2022-09-02T11:00:45.603Z,10.35
2022-09-02T11:03:22.553Z,10.57
2022-09-02T11:06:08.024Z,9.43
2022-09-02T11:08:46.505Z,9.15
2022-09-02T11:11:22.507Z,7.90
2022-09-02T11:14:00.146Z,8.85
2022-09-02T11:16:48.085Z,8.75
2022-09-02T11:19:18.318Z,9.13
2022-09-02T11:22:12.271Z,7.85
2022-09-02T11:24:46.562Z,8.80
2022-09-02T11:27:41.734Z,9.32
2022-09-02T11:30:15.176Z,8.85
2022-09-02T11:32:47.423Z,8.48
2022-09-02T11:35:28.859Z,8.82
2022-09-02T11:38:05.189Z,8.05
2022-09-02T11:40:44.374Z,9.13
2022-09-02T11:43:35.910Z,8.63
2022-09-02T11:46:23.298Z,8.70
2022-09-02T11:49:11.783Z,7.43
2022-09-02T11:52:06.400Z,10.43
2022-09-02T11:54:40.145Z,10.75
2022-09-02T11:57:11.879Z,11.57
2022-09-02T11:59:51.584Z,9.27
2022-09-02T12:02:40.016Z,9.45
2022-09-02T12:05:30.020Z,9.63
2022-09-02T12:08:00.319Z,9.73
2022-09-02T12:10:39.877Z,9.68
2022-09-02T12:13:09.475Z,11.65
2022-09-02T12:15:36.766Z,9.55
2022-09-02T12:18:13.493Z,9.77
2022-09-02T12:20:41.523Z,9.15
2022-09-02T12:23:10.348Z,9.57
2022-09-02T12:25:49.470Z,9.25
2022-09-02T12:28:27.504Z,9.80
2022-09-02T12:31:08.488Z,9.18
2022-09-02T12:33:37.079Z,9.43
2022-09-02T12:36:05.665Z,10.02
2022-09-02T12:38:34.067Z,10.15
2022-09-02T12:41:07.988Z,10.60
2022-09-02T12:43:44.786Z,10.90
2022-09-02T12:46:28.706Z,10.80
2022-09-02T12:49:05.770Z,10.40
2022-09-02T12:51:52.525Z,10.52
2022-09-02T12:54:29.985Z,13.45
2022-09-02T12:56:56.632Z,11.82
2022-09-02T12:59:42.030Z,12.88
2022-09-02T13:02:46.882Z,11.45
2022-09-02T13:05:32.059Z,11.68
2022-09-02T13:08:17.737Z,11.95
2022-09-02T13:11:05.799Z,12.02
2022-09-02T13:13:44.472Z,11.70
2022-09-02T13:16:22.549Z,12.35
2022-09-02T13:19:33.717Z,12.85
2022-09-02T13:22:09.346Z,13.35
2022-09-02T13:25:15.365Z,12.50
2022-09-02T13:28:06.522Z,12.45
2022-09-02T13:30:57.580Z,12.77
2022-09-02T13:33:26.791Z,12.68
2022-09-02T13:36:01.538Z,13.25
2022-09-02T13:38:30.301Z,14.95
2022-09-02T13:40:57.154Z,13.68
2022-09-02T13:43:27.104Z,16.50
2022-09-02T13:45:59.571Z,17.98
2022-09-02T13:48:29.247Z,17.27
2022-09-02T13:51:02.160Z,18.42
2022-09-02T13:53:54.058Z,20.67
2022-09-02T13:56:31.312Z,22.48
2022-09-02T13:58:57.938Z,26.08
2022-09-02T14:01:38.319Z,26.33
2022-09-02T14:04:16.541Z,24.10
2022-09-02T14:06:47.524Z,26.88
2022-09-02T14:09:26.329Z,27.17
2022-09-02T14:11:54.597Z,31.17
2022-09-02T14:14:24.259Z,30.58
2022-09-02T14:16:51.369Z,32.50
2022-09-02T14:19:17.948Z,38.80
2022-09-02T14:21:51.428Z,38.25
2022-09-02T14:24:24.374Z,32.35
2022-09-02T14:26:54.775Z,31.13
2022-09-02T14:29:22.417Z,30.40
2022-09-02T14:32:06.072Z,29.98
2022-09-02T14:34:33.536Z,29.55
2022-09-02T14:37:00.386Z,29.15
2022-09-02T14:39:27.471Z,29.05
2022-09-02T14:41:56.260Z,32.45
2022-09-02T14:44:32.578Z,31.88
2022-09-02T14:47:02.050Z,33.58
2022-09-02T14:49:31.284Z,32.38
2022-09-02T14:52:00.433Z,32.17
2022-09-02T14:54:40.892Z,28.75
2022-09-02T14:57:22.216Z,28.70
2022-09-02T14:59:50.924Z,27.58
2022-09-02T15:02:24.896Z,29.35
2022-09-02T15:04:51.581Z,30.75
2022-09-02T15:07:18.912Z,46.80
2022-09-02T15:09:46.117Z,37.60
2022-09-02T15:12:14.090Z,29.73
2022-09-02T15:14:47.019Z,23.20
2022-09-02T15:17:15.808Z,19.98
2022-09-02T15:19:42.508Z,21.08
2022-09-02T15:22:09.169Z,21.05
2022-09-02T15:24:35.777Z,18.40
2022-09-02T15:27:02.516Z,16.75
2022-09-02T15:29:29.243Z,17.13
2022-09-02T15:31:55.858Z,17.50
2022-09-02T15:34:26.387Z,19.23
2022-09-02T15:36:55.294Z,19.02
2022-09-02T15:39:22.982Z,21.20
2022-09-02T15:41:50.339Z,22.35
2022-09-02T15:44:18.007Z,20.58
2022-09-02T15:46:45.552Z,18.52
2022-09-02T15:49:15.843Z,17.50
2022-09-02T15:51:46.909Z,15.98
2022-09-02T15:54:16.519Z,17.27
2022-09-02T15:56:45.561Z,16.35
2022-09-02T15:59:15.234Z,12.45
2022-09-02T16:01:44.665Z,17.00
2022-09-02T16:04:12.697Z,11.43
2022-09-02T16:06:41.952Z,10.57
2022-09-02T16:09:10.441Z,10.40
2022-09-02T16:11:38.808Z,10.00
2022-09-02T16:14:06.023Z,11.25
2022-09-02T16:16:33.567Z,10.00
2022-09-02T16:19:00.338Z,8.43
2022-09-02T16:21:27.019Z,10.93
2022-09-02T16:23:53.839Z,7.05
2022-09-02T16:26:28.719Z,11.50
2022-09-02T16:29:00.908Z,7.45
2022-09-02T16:31:29.785Z,7.45
2022-09-02T16:34:02.176Z,7.85
2022-09-02T16:36:33.470Z,6.70
2022-09-02T16:39:01.180Z,8.00
2022-09-02T16:41:35.495Z,7.20
2022-09-02T16:44:05.645Z,6.53
2022-09-02T16:46:32.765Z,7.25
2022-09-02T16:48:59.481Z,8.52
2022-09-02T16:51:27.906Z,7.30
2022-09-02T16:53:59.298Z,7.53
2022-09-02T16:56:26.296Z,7.30
2022-09-02T16:58:53.644Z,8.30
2022-09-02T17:01:23.150Z,8.25
2022-09-02T17:03:50.663Z,8.90
2022-09-02T17:06:18.426Z,10.63
2022-09-02T17:08:45.157Z,9.73
2022-09-02T17:11:37.608Z,10.68
2022-09-02T17:14:07.344Z,11.13
2022-09-02T17:16:39.134Z,11.40
2022-09-02T17:19:07.018Z,12.85
2022-09-02T17:21:37.316Z,11.20
2022-09-02T17:24:06.929Z,11.65
2022-09-02T17:26:36.559Z,13.40
2022-09-02T17:29:21.418Z,11.98
2022-09-02T17:31:58.175Z,12.68
2022-09-02T17:34:26.020Z,13.43
2022-09-02T17:36:53.396Z,12.43
2022-09-02T17:39:20.665Z,12.80
2022-09-02T17:41:57.798Z,13.80
2022-09-02T17:44:35.982Z,14.93
2022-09-02T17:47:05.967Z,14.15
2022-09-02T17:49:37.557Z,15.02
2022-09-02T17:52:07.392Z,14.45
2022-09-02T17:54:38.830Z,14.77
2022-09-02T17:57:33.472Z,14.10
2022-09-02T18:00:18.971Z,13.63
2022-09-02T18:03:04.309Z,14.38
2022-09-02T18:05:42.776Z,14.57
2022-09-02T18:08:54.336Z,12.75
2022-09-02T18:11:22.622Z,14.98
2022-09-02T18:14:01.428Z,13.07
2022-09-02T18:17:04.243Z,15.10
2022-09-02T18:19:45.814Z,14.25
2022-09-02T18:22:24.712Z,13.52
2022-09-02T18:25:24.007Z,13.63
2022-09-02T18:28:31.722Z,11.52
2022-09-02T18:31:22.917Z,12.38
2022-09-02T18:33:54.960Z,12.48
2022-09-02T18:39:27.254Z,11.73
2022-09-02T18:42:15.504Z,13.23
2022-09-02T18:45:06.690Z,12.05
2022-09-02T18:47:58.196Z,11.93
2022-09-02T18:50:52.176Z,12.47
2022-09-02T18:53:22.980Z,11.55
2022-09-02T18:55:52.194Z,11.68
2022-09-02T18:58:36.572Z,11.57
2022-09-02T19:01:29.907Z,12.68
2022-09-02T19:03:59.717Z,12.30
2022-09-02T19:06:34.285Z,11.45
2022-09-02T19:09:11.878Z,11.43
2022-09-02T19:11:39.792Z,12.00
2022-09-02T19:14:29.929Z,12.15
2022-09-02T19:16:58.350Z,12.95
2022-09-02T19:19:27.479Z,12.40
2022-09-02T19:22:15.846Z,12.35
2022-09-02T19:24:44.991Z,12.00
2022-09-02T19:27:21.411Z,11.80
2022-09-02T19:29:52.487Z,12.80
2022-09-02T19:32:25.940Z,13.57
2022-09-02T19:34:52.889Z,12.20
2022-09-02T19:37:20.233Z,14.55
2022-09-02T19:39:51.260Z,13.57
2022-09-02T19:42:20.779Z,11.80
2022-09-02T19:44:51.104Z,12.25
2022-09-02T19:50:06.213Z,12.65
2022-09-02T19:52:39.283Z,11.88
2022-09-02T19:55:06.597Z,13.20
2022-09-02T19:57:33.268Z,13.52
2022-09-02T19:59:59.971Z,11.27
2022-09-02T20:02:26.799Z,11.55
2022-09-02T20:04:53.388Z,12.23
2022-09-02T20:07:20.107Z,11.63
2022-09-02T20:09:46.853Z,12.07
2022-09-02T20:12:14.408Z,12.05
2022-09-02T20:14:41.013Z,11.63
2022-09-02T20:17:13.259Z,11.02
2022-09-02T20:19:42.234Z,11.15
2022-09-02T20:22:14.135Z,12.45
2022-09-02T20:24:41.687Z,11.00
2022-09-02T20:27:47.352Z,11.38
2022-09-02T20:30:17.650Z,9.65
2022-09-02T20:33:00.428Z,11.43
2022-09-02T20:36:01.132Z,12.23
2022-09-02T20:38:49.052Z,10.88
2022-09-02T20:41:46.656Z,11.48
2022-09-02T20:44:28.595Z,11.63
2022-09-02T20:47:07.581Z,10.25
2022-09-02T20:49:43.250Z,11.50
2022-09-02T20:52:21.873Z,12.18
2022-09-02T20:54:59.737Z,11.85
2022-09-02T20:57:50.917Z,11.80
2022-09-02T21:00:20.579Z,11.45
2022-09-02T21:03:11.030Z,10.57
2022-09-02T21:05:43.957Z,8.98
2022-09-02T21:08:24.763Z,11.02
2022-09-02T21:11:00.951Z,10.15
2022-09-02T21:13:42.963Z,10.45
2022-09-02T21:16:14.273Z,10.40
2022-09-02T21:19:19.008Z,9.25
2022-09-02T21:21:53.926Z,9.88
2022-09-02T21:24:28.459Z,9.98
2022-09-02T21:27:15.999Z,9.43
2022-09-02T21:29:52.551Z,8.73
2022-09-02T21:32:43.735Z,9.02
2022-09-02T21:35:21.427Z,8.15
2022-09-02T21:37:53.495Z,8.55
2022-09-02T21:43:07.468Z,8.52
2022-09-02T21:45:41.923Z,8.18
2022-09-02T21:48:46.656Z,9.02
2022-09-02T21:51:22.084Z,8.88
2022-09-02T21:54:13.391Z,7.72
2022-09-02T21:56:58.957Z,7.25
2022-09-02T21:59:50.341Z,7.45
2022-09-02T22:02:29.847Z,8.80
2022-09-02T22:05:18.438Z,7.65
2022-09-02T22:07:45.058Z,8.10
2022-09-02T22:10:36.332Z,7.90
2022-09-02T22:13:04.309Z,7.95
2022-09-02T22:15:34.643Z,8.07
2022-09-02T22:18:37.669Z,8.48
2022-09-02T22:21:26.681Z,9.32
2022-09-02T22:23:54.519Z,7.88
2022-09-02T22:26:34.740Z,8.07
2022-09-02T22:29:05.807Z,8.35
2022-09-02T22:31:35.892Z,8.20
2022-09-02T22:34:05.670Z,8.38
2022-09-02T22:36:56.274Z,9.02
2022-09-02T22:39:49.371Z,7.68
2022-09-02T22:42:36.858Z,8.45
2022-09-02T22:45:40.425Z,9.40
2022-09-02T22:48:36.974Z,8.82
2022-09-02T22:51:32.384Z,8.77
2022-09-02T22:53:58.958Z,8.18
2022-09-02T22:56:39.389Z,9.13
2022-09-02T22:59:48.091Z,8.23
2022-09-02T23:02:31.369Z,8.13
2022-09-02T23:05:49.444Z,9.07
2022-09-02T23:08:21.841Z,8.30
2022-09-02T23:10:58.995Z,8.68
2022-09-02T23:13:46.053Z,9.02
2022-09-02T23:16:19.163Z,8.52
2022-09-02T23:18:52.918Z,8.90
2022-09-02T23:21:37.646Z,8.60
2022-09-02T23:24:33.009Z,8.55
2022-09-02T23:27:09.376Z,9.07
2022-09-02T23:29:37.745Z,8.98
2022-09-02T23:32:25.980Z,9.35
2022-09-02T23:34:58.571Z,8.85
2022-09-02T23:37:47.860Z,9.55
2022-09-02T23:40:28.275Z,9.18
2022-09-02T23:42:58.061Z,9.50
2022-09-02T23:45:35.636Z,9.23
2022-09-02T23:48:33.342Z,8.88
2022-09-02T23:51:13.851Z,8.25
2022-09-02T23:54:04.761Z,8.80
2022-09-02T23:57:08.826Z,9.50
2022-09-02T23:59:41.141Z,7.57
